createdAt,value
2018-10-03T00:00:03.790Z,41.01
2018-10-03T00:05:03.811Z,41.01
2018-10-03T00:10:03.799Z,41.01
2018-10-03T00:15:03.810Z,41.01
2018-10-03T00:20:03.825Z,41.01
2018-10-03T00:25:03.807Z,41.01
2018-10-03T00:30:03.805Z,41.01
2018-10-03T00:35:03.829Z,41.01
2018-10-03T00:40:03.814Z,41.01
2018-10-03T00:45:03.816Z,41.01
2018-10-03T00:50:03.837Z,41.01
2018-10-03T00:55:03.821Z,41.01
2018-10-03T01:00:03.822Z,41.01
2018-10-03T01:05:03.845Z,41.01
2018-10-03T01:10:03.827Z,41.01
2018-10-03T01:15:03.832Z,41.01
2018-10-03T01:20:03.844Z,41.01
2018-10-03T01:25:03.832Z,41.01
2018-10-03T01:30:03.842Z,41.01
2018-10-03T01:35:03.867Z,41.01
2018-10-03T01:40:03.850Z,8.75
2018-10-03T01:45:03.864Z,41.01
2018-10-03T01:50:03.860Z,41.01
2018-10-03T01:55:03.851Z,41.01
2018-10-03T02:00:03.864Z,41.01
2018-10-03T02:05:03.865Z,41.01
2018-10-03T02:10:03.880Z,41.01
2018-10-03T02:15:03.860Z,41.01
2018-10-03T02:20:03.884Z,41.01
2018-10-03T02:25:03.875Z,41.01
2018-10-03T02:30:03.892Z,41.01
2018-10-03T02:35:03.881Z,41.01
2018-10-03T02:40:03.899Z,41.01
2018-10-03T02:45:03.886Z,41.01
2018-10-03T02:50:03.894Z,41.01
2018-10-03T02:55:03.891Z,41.01
2018-10-03T03:00:03.911Z,41.01
2018-10-03T03:05:03.899Z,41.01
2018-10-03T03:10:03.911Z,41.01
2018-10-03T03:15:03.893Z,41.01
2018-10-03T03:20:03.921Z,41.01
2018-10-03T03:25:03.901Z,41.01
2018-10-03T03:30:03.911Z,41.01
2018-10-03T03:35:03.916Z,41.01
2018-10-03T03:40:03.924Z,41.01
2018-10-03T03:45:03.913Z,41.01
2018-10-03T03:50:03.924Z,41.01
2018-10-03T03:55:03.935Z,41.01
2018-10-03T04:00:03.928Z,41.01
2018-10-03T04:05:03.947Z,41.01
2018-10-03T04:10:03.931Z,41.01
2018-10-03T04:15:03.961Z,41.01
2018-10-03T04:20:03.938Z,41.01
2018-10-03T04:25:03.931Z,41.01
2018-10-03T04:30:03.945Z,41.01
2018-10-03T04:35:03.950Z,41.01
2018-10-03T04:40:03.944Z,41.01
2018-10-03T04:45:03.962Z,41.01
2018-10-03T04:50:03.952Z,41.01
2018-10-03T04:55:03.963Z,41.01
2018-10-03T05:00:03.973Z,41.01
2018-10-03T05:05:03.966Z,8.75
2018-10-03T05:10:03.956Z,41.01
2018-10-03T05:15:03.965Z,41.01
2018-10-03T05:20:03.983Z,41.01
2018-10-03T05:25:03.966Z,41.01
2018-10-03T05:30:03.967Z,41.01
2018-10-03T05:35:03.979Z,41.01
2018-10-03T05:40:03.977Z,41.01
2018-10-03T05:45:03.988Z,8.75
2018-10-03T05:50:03.988Z,8.75
2018-10-03T05:55:04.002Z,41.01
2018-10-03T06:00:04.004Z,41.01
2018-10-03T06:05:03.997Z,41.01
2018-10-03T06:10:03.998Z,41.01
2018-10-03T06:15:04.011Z,41.01
2018-10-03T06:20:04.007Z,9.08
2018-10-03T06:25:04.012Z,9.43
2018-10-03T06:30:03.994Z,9.43
2018-10-03T06:35:04.023Z,9.43
2018-10-03T06:40:04.008Z,9.43
2018-10-03T06:45:04.022Z,19.04
2018-10-03T06:50:04.025Z,9.45
2018-10-03T06:55:04.037Z,9.48
2018-10-03T07:00:04.035Z,41.01
2018-10-03T07:05:04.038Z,41.01
2018-10-03T07:10:04.035Z,41.01
2018-10-03T07:15:04.023Z,41.01
2018-10-03T07:20:04.104Z,41.01
2018-10-03T07:25:04.033Z,41.01
2018-10-03T07:30:04.029Z,41.01
2018-10-03T07:35:04.044Z,41.01
2018-10-03T07:40:04.036Z,41.01
2018-10-03T07:45:04.043Z,41.01
2018-10-03T07:50:04.067Z,41.01
2018-10-03T07:55:04.046Z,41.01
2018-10-03T08:00:04.052Z,41.01
2018-10-03T08:05:04.074Z,41.01
2018-10-03T08:10:04.149Z,41.01
2018-10-03T08:15:04.062Z,41.01
2018-10-03T08:20:04.066Z,41.01
2018-10-03T08:25:04.062Z,41.01
2018-10-03T08:30:04.121Z,41.01
2018-10-03T08:35:04.071Z,19.04
2018-10-03T08:40:04.069Z,41.01
2018-10-03T08:45:04.070Z,41.01
2018-10-03T08:50:04.095Z,41.01
2018-10-03T08:55:04.084Z,41.01
2018-10-03T09:00:04.083Z,41.01
2018-10-03T09:05:04.092Z,41.01
2018-10-03T09:10:04.095Z,41.01
2018-10-03T09:15:04.088Z,41.01
2018-10-03T09:20:04.100Z,41.01
2018-10-03T09:25:04.094Z,41.01
2018-10-03T09:30:04.098Z,41.01
2018-10-03T09:35:04.108Z,41.01
2018-10-03T09:40:04.100Z,41.01
2018-10-03T09:45:04.111Z,41.01
2018-10-03T09:50:04.133Z,41.01
2018-10-03T09:55:04.119Z,41.01
2018-10-03T10:00:04.122Z,41.01
2018-10-03T10:05:04.133Z,41.01
2018-10-03T10:10:04.160Z,41.01
2018-10-03T10:15:04.141Z,41.01
2018-10-03T10:20:04.149Z,41.01
2018-10-03T10:25:04.153Z,41.01
2018-10-03T10:30:04.129Z,41.01
2018-10-03T10:35:04.156Z,41.01
2018-10-03T10:40:04.197Z,41.01
2018-10-03T10:45:04.145Z,41.01
2018-10-03T10:50:04.160Z,41.01
2018-10-03T10:55:04.148Z,41.01
2018-10-03T11:00:04.147Z,41.01
2018-10-03T11:05:04.167Z,41.01
2018-10-03T11:10:04.156Z,41.01
2018-10-03T11:15:04.162Z,41.01
2018-10-03T11:20:04.181Z,41.01
2018-10-03T11:25:04.162Z,41.01
2018-10-03T11:30:04.171Z,41.01
2018-10-03T11:35:04.185Z,41.01
2018-10-03T11:40:04.170Z,41.01
2018-10-03T11:45:04.175Z,41.01
2018-10-03T11:50:04.232Z,41.01
2018-10-03T11:55:04.181Z,41.01
2018-10-03T12:00:04.181Z,41.01
2018-10-03T12:05:04.196Z,41.01
2018-10-03T12:10:04.187Z,41.01
2018-10-03T12:15:04.191Z,41.01
2018-10-03T12:20:04.199Z,41.01
2018-10-03T12:25:04.231Z,41.01
2018-10-03T12:30:04.193Z,41.01
2018-10-03T12:35:04.207Z,41.01
2018-10-03T12:40:04.199Z,41.01
2018-10-03T12:45:04.255Z,41.01
2018-10-03T12:50:04.204Z,41.01
2018-10-03T12:55:04.218Z,41.01
2018-10-03T13:00:04.212Z,41.01
2018-10-03T13:05:04.212Z,41.01
2018-10-03T13:10:04.216Z,41.01
2018-10-03T13:15:04.236Z,41.01
2018-10-03T13:20:04.221Z,41.01
2018-10-03T13:25:04.226Z,41.01
2018-10-03T13:30:04.235Z,41.01
2018-10-03T13:35:04.234Z,41.01
2018-10-03T13:40:04.258Z,41.01
2018-10-03T13:45:04.238Z,15.07
2018-10-03T13:50:04.239Z,19.04
2018-10-03T13:55:04.250Z,19.04
2018-10-03T14:00:04.246Z,41.01
2018-10-03T14:05:04.247Z,41.01
2018-10-03T14:10:04.272Z,41.01
2018-10-03T14:15:04.247Z,41.01
2018-10-03T14:20:04.259Z,41.01
2018-10-03T14:25:04.277Z,41.01
2018-10-03T14:30:04.268Z,41.01
2018-10-03T14:35:04.256Z,41.01
2018-10-03T14:40:04.275Z,41.01
2018-10-03T14:45:04.277Z,41.01
2018-10-03T14:50:04.284Z,41.01
2018-10-03T14:55:04.291Z,41.01
2018-10-03T15:00:04.277Z,41.01
2018-10-03T15:05:04.277Z,41.01
2018-10-03T15:10:04.293Z,41.01
2018-10-03T15:15:04.286Z,41.01
2018-10-03T15:20:04.284Z,41.01
2018-10-03T15:25:04.299Z,41.01
2018-10-03T15:30:04.374Z,41.01
2018-10-03T15:35:04.286Z,41.01
2018-10-03T15:40:04.301Z,41.01
2018-10-03T15:45:04.314Z,41.01
2018-10-03T15:50:04.320Z,41.01
2018-10-03T15:55:04.386Z,41.01
2018-10-03T16:00:04.305Z,41.01
2018-10-03T16:05:04.309Z,41.01
2018-10-03T16:10:04.328Z,41.01
2018-10-03T16:15:04.314Z,41.01
2018-10-03T16:20:04.325Z,41.01
2018-10-03T16:25:04.323Z,41.01
2018-10-03T16:30:04.325Z,41.01
2018-10-03T16:35:04.336Z,41.01
2018-10-03T16:40:04.347Z,10.81
2018-10-03T16:45:04.366Z,10.81
2018-10-03T16:50:04.399Z,10.81
2018-10-03T16:55:04.344Z,10.43
2018-10-03T17:00:04.342Z,10.29
2018-10-03T17:05:04.357Z,10.15
2018-10-03T17:10:04.362Z,10.12
2018-10-03T17:15:04.352Z,10.12
2018-10-03T17:20:04.349Z,10.12
2018-10-03T17:25:04.362Z,10.39
2018-10-03T17:30:04.355Z,10.81
2018-10-03T17:35:04.381Z,10.81
2018-10-03T17:40:04.414Z,10.84
2018-10-03T17:45:04.370Z,10.92
2018-10-03T17:50:04.370Z,10.9
2018-10-03T17:55:04.373Z,10.9
2018-10-03T18:00:04.378Z,10.94
2018-10-03T18:05:04.457Z,10.98
2018-10-03T18:10:04.387Z,10.86
2018-10-03T18:15:04.383Z,10.81
2018-10-03T18:20:04.385Z,10.81
2018-10-03T18:25:04.405Z,10.83
2018-10-03T18:30:04.411Z,10.81
2018-10-03T18:35:04.391Z,10.81
2018-10-03T18:40:04.408Z,10.34
2018-10-03T18:45:04.462Z,10.13
2018-10-03T18:50:04.402Z,10.12
2018-10-03T18:55:04.411Z,10.12
2018-10-03T19:00:04.403Z,10.12
2018-10-03T19:05:04.413Z,10.12
2018-10-03T19:10:04.427Z,9.75
2018-10-03T19:15:04.417Z,9.72
2018-10-03T19:20:03.434Z,41.01
2018-10-03T19:25:03.417Z,9.6
2018-10-03T19:30:03.425Z,9.47
2018-10-03T19:35:03.427Z,9.43
2018-10-03T19:40:03.427Z,9.43
2018-10-03T19:45:03.447Z,41.01
2018-10-03T19:50:03.430Z,41.01
2018-10-03T19:55:03.433Z,41.01
2018-10-03T20:00:03.450Z,41.01
2018-10-03T20:05:03.437Z,41.01
2018-10-03T20:10:03.440Z,41.01
2018-10-03T20:15:03.595Z,41.01
2018-10-03T20:20:03.448Z,41.01
2018-10-03T20:25:03.451Z,41.01
2018-10-03T20:30:03.479Z,41.01
2018-10-03T20:35:03.454Z,41.01
2018-10-03T20:40:03.463Z,41.01
2018-10-03T20:45:03.476Z,41.01
2018-10-03T20:50:03.462Z,41.01
2018-10-03T20:55:03.471Z,41.01
2018-10-03T21:00:03.490Z,41.01
2018-10-03T21:05:03.470Z,41.01
2018-10-03T21:10:03.471Z,41.01
2018-10-03T21:15:03.492Z,41.01
2018-10-03T21:20:03.476Z,41.01
2018-10-03T21:25:03.606Z,41.01
2018-10-03T21:30:03.502Z,41.01
2018-10-03T21:35:03.486Z,41.01
2018-10-03T21:40:03.500Z,41.01
2018-10-03T21:45:03.519Z,41.01
2018-10-03T21:50:03.494Z,41.01
2018-10-03T21:55:03.501Z,41.01
2018-10-03T22:00:03.506Z,41.01
2018-10-03T22:05:03.504Z,41.01
2018-10-03T22:10:03.507Z,8.06
2018-10-03T22:15:03.511Z,41.01
2018-10-03T22:20:03.510Z,6.78
2018-10-03T22:25:03.514Z,6.78
2018-10-03T22:30:03.538Z,41.01
2018-10-03T22:35:03.519Z,6.69
2018-10-03T22:40:03.521Z,41.01
2018-10-03T22:45:03.596Z,7.37
2018-10-03T22:50:03.532Z,7.37
2018-10-03T22:55:03.529Z,8.06
2018-10-03T23:00:03.552Z,7.37
2018-10-03T23:05:03.539Z,41.01
2018-10-03T23:10:03.545Z,7.37
2018-10-03T23:15:03.547Z,7.37
2018-10-03T23:20:03.541Z,41.01
2018-10-03T23:25:03.545Z,6.69
2018-10-03T23:30:03.715Z,6.69
2018-10-03T23:35:03.551Z,6.3
2018-10-03T23:40:03.557Z,6.69
2018-10-03T23:45:03.566Z,6.69
2018-10-03T23:50:03.557Z,6.82
2018-10-03T23:55:03.562Z,6.99
